Time;durP1;ratioP1;P1;durP2;ratioP2;P2;SDS_P1;SDS_P2;PMS_P1;PMS_P2;Temp;Humidity;BMP_temperature;BMP_pressure;BME280_temperature;BME280_humidity;BME280_pressure;Samples;Min_cycle;Max_cycle;Signal;HPM_P1;HPM_P2
2021/08/19 00:00:09;;;;;;;;;;;15.50;92.30;;;;;;5034572;28;20296;-59
2021/08/19 00:02:34;;;;;;;;;;;15.50;92.30;;;;;;5051986;28;19917;-59
2021/08/19 00:05:00;;;;;;;;;;;15.50;92.40;;;;;;5052432;28;19916;-59
2021/08/19 00:07:25;;;;;;;;;;;15.50;92.40;;;;;;5052146;28;20281;-59
2021/08/19 00:09:52;;;;;;;;;;;15.50;92.40;;;;;;5051951;28;20223;-62
2021/08/19 00:12:17;;;;;;;;;;;15.50;92.40;;;;;;5052134;28;19920;-63
2021/08/19 00:14:43;;;;;;;;;;;15.60;92.50;;;;;;5052348;28;19985;-62
2021/08/19 00:17:08;;;;;;;;;;;15.60;92.50;;;;;;5051390;28;20374;-62
2021/08/19 00:19:34;;;;;;;;;;;15.60;92.40;;;;;;5052179;28;19999;-62
2021/08/19 00:22:00;;;;;;;;;;;15.60;92.40;;;;;;5052023;28;19924;-64
2021/08/19 00:24:28;;;;;;;;;;;15.60;92.40;;;;;;5051194;28;26146;-62
2021/08/19 00:26:53;;;;;;;;;;;15.60;92.40;;;;;;5050550;28;19928;-63
2021/08/19 00:29:19;;;;;;;;;;;15.50;92.40;;;;;;5050240;28;20377;-62
2021/08/19 00:31:44;;;;;;;;;;;15.50;92.40;;;;;;5050346;28;20384;-59
2021/08/19 00:34:10;;;;;;;;;;;15.50;92.40;;;;;;5051960;28;19917;-59
2021/08/19 00:36:36;;;;;;;;;;;15.50;92.40;;;;;;5051275;28;19916;-59
2021/08/19 00:39:02;;;;;;;;;;;15.50;92.40;;;;;;5051886;28;19917;-59
2021/08/19 00:41:27;;;;;;;;;;;15.40;92.30;;;;;;5051617;28;19921;-60
2021/08/19 00:43:54;;;;;;;;;;;15.40;92.30;;;;;;5051155;28;21590;-60
2021/08/19 00:46:27;;;;;;;;;;;15.30;92.30;;;;;;5050361;28;19917;-60
2021/08/19 00:49:11;;;;;;;;;;;15.30;92.40;;;;;;5050960;28;20304;-60
2021/08/19 00:51:38;;;;;;;;;;;15.20;92.50;;;;;;5051533;28;19974;-60
2021/08/19 00:54:05;;;;;;;;;;;15.20;92.60;;;;;;5051271;28;19913;-61
2021/08/19 00:56:31;;;;;;;;;;;15.20;92.60;;;;;;5051259;28;19940;-60
2021/08/19 00:58:57;;;;;;;;;;;15.30;92.60;;;;;;5051406;28;19995;-60
2021/08/19 01:01:23;;;;;;;;;;;15.30;92.60;;;;;;5049640;28;19929;-60
2021/08/19 01:03:49;;;;;;;;;;;15.30;92.60;;;;;;5051513;28;19916;-61
2021/08/19 01:06:17;;;;;;;;;;;15.30;92.60;;;;;;5049834;28;20312;-60
2021/08/19 01:08:42;;;;;;;;;;;15.30;92.60;;;;;;5051239;28;19923;-60
2021/08/19 01:11:09;;;;;;;;;;;15.30;92.60;;;;;;5051509;28;19917;-60
2021/08/19 01:13:34;;;;;;;;;;;15.30;92.60;;;;;;5049584;28;19917;-60
2021/08/19 01:16:01;;;;;;;;;;;15.40;92.60;;;;;;5051566;28;19975;-60
2021/08/19 01:18:36;;;;;;;;;;;15.30;92.60;;;;;;5050759;28;20396;-62
2021/08/19 01:21:01;;;;;;;;;;;15.40;92.60;;;;;;5051265;28;19921;-62
2021/08/19 01:23:27;;;;;;;;;;;15.30;92.60;;;;;;5051349;28;19955;-63
2021/08/19 01:25:52;;;;;;;;;;;15.30;92.60;;;;;;5050972;28;20440;-63
2021/08/19 01:28:18;;;;;;;;;;;15.30;92.60;;;;;;5051019;28;20293;-63
2021/08/19 01:30:43;;;;;;;;;;;15.40;92.60;;;;;;5051351;28;19917;-63
2021/08/19 01:33:09;;;;;;;;;;;15.40;92.60;;;;;;5096366;22;20015;-62
2021/08/19 01:35:35;;;;;;;;;;;15.30;92.60;;;;;;5091217;28;19916;-61
2021/08/19 01:38:01;;;;;;;;;;;15.40;92.60;;;;;;5072527;28;20435;-62
2021/08/19 01:40:26;;;;;;;;;;;15.40;92.60;;;;;;5091243;28;19920;-65
2021/08/19 01:42:52;;;;;;;;;;;15.40;92.50;;;;;;5091169;28;20045;-62
2021/08/19 01:45:18;;;;;;;;;;;15.40;92.60;;;;;;5072949;28;19999;-63
2021/08/19 01:47:44;;;;;;;;;;;15.40;92.50;;;;;;5073009;28;20078;-63
2021/08/19 01:50:10;;;;;;;;;;;15.40;92.50;;;;;;5091328;28;20372;-63
2021/08/19 01:52:35;;;;;;;;;;;15.40;92.50;;;;;;5072749;28;19916;-63
2021/08/19 01:55:01;;;;;;;;;;;15.40;92.50;;;;;;5091246;28;19917;-62
2021/08/19 01:57:28;;;;;;;;;;;15.40;92.40;;;;;;5073765;28;20007;-62
2021/08/19 01:59:54;;;;;;;;;;;15.40;92.40;;;;;;5094870;28;19920;-62
2021/08/19 02:02:20;;;;;;;;;;;15.40;92.30;;;;;;5094812;28;19924;-63
2021/08/19 02:04:45;;;;;;;;;;;15.40;92.30;;;;;;5094435;28;19916;-63
2021/08/19 02:07:11;;;;;;;;;;;15.40;92.30;;;;;;5094471;28;19920;-62
2021/08/19 02:09:36;;;;;;;;;;;15.40;92.20;;;;;;5094509;28;20447;-63
2021/08/19 02:12:03;;;;;;;;;;;15.40;92.20;;;;;;5094563;28;19916;-63
2021/08/19 02:14:28;;;;;;;;;;;15.30;92.20;;;;;;5076603;28;20274;-62
2021/08/19 02:16:54;;;;;;;;;;;15.30;92.20;;;;;;5094106;28;19920;-62
2021/08/19 02:19:19;;;;;;;;;;;15.20;92.20;;;;;;5076699;28;19923;-63
2021/08/19 02:21:45;;;;;;;;;;;15.20;92.30;;;;;;5094444;28;20054;-62
2021/08/19 02:24:10;;;;;;;;;;;15.20;92.40;;;;;;5093981;28;20315;-63
2021/08/19 02:26:36;;;;;;;;;;;15.10;92.40;;;;;;5094348;28;19916;-62
2021/08/19 02:29:01;;;;;;;;;;;15.10;92.40;;;;;;5094241;28;19961;-62
2021/08/19 02:31:27;;;;;;;;;;;15.10;92.40;;;;;;5093722;28;19965;-63
2021/08/19 02:33:53;;;;;;;;;;;15.10;92.40;;;;;;5094308;28;19924;-62
2021/08/19 02:36:18;;;;;;;;;;;15.00;92.40;;;;;;5094492;28;19916;-63
2021/08/19 02:38:44;;;;;;;;;;;15.00;92.50;;;;;;5093473;28;20296;-63
2021/08/19 02:41:09;;;;;;;;;;;14.90;92.50;;;;;;5076083;28;20426;-62
2021/08/19 02:43:41;;;;;;;;;;;14.90;92.60;;;;;;5093779;28;19916;-63
2021/08/19 02:46:06;;;;;;;;;;;14.40;92.50;;;;;;5094248;28;19985;-62
2021/08/19 02:48:32;;;;;;;;;;;14.80;92.70;;;;;;5093761;28;20379;-62
2021/08/19 02:50:57;;;;;;;;;;;14.80;92.80;;;;;;5075394;28;19920;-62
2021/08/19 02:53:23;;;;;;;;;;;14.80;92.90;;;;;;5093884;28;19923;-62
2021/08/19 02:55:48;;;;;;;;;;;14.80;93.00;;;;;;5093968;28;19923;-62
2021/08/19 02:58:14;;;;;;;;;;;14.80;93.00;;;;;;5075239;28;19923;-63
2021/08/19 03:00:39;;;;;;;;;;;14.80;93.10;;;;;;5075613;28;20295;-63
2021/08/19 03:03:05;;;;;;;;;;;14.80;93.10;;;;;;5093386;28;20360;-62
2021/08/19 03:05:30;;;;;;;;;;;14.80;93.10;;;;;;5075547;28;19980;-63
2021/08/19 03:07:56;;;;;;;;;;;14.80;93.10;;;;;;5092766;28;19990;-62
2021/08/19 03:10:22;;;;;;;;;;;14.70;93.20;;;;;;5074494;28;19916;-62
2021/08/19 03:12:47;;;;;;;;;;;14.70;93.20;;;;;;5093404;28;19916;-63
2021/08/19 03:15:13;;;;;;;;;;;14.70;93.20;;;;;;5075468;28;19952;-62
2021/08/19 03:17:38;;;;;;;;;;;14.70;93.20;;;;;;5092942;28;20013;-63
2021/08/19 03:20:04;;;;;;;;;;;14.70;93.20;;;;;;5093333;28;20376;-62
2021/08/19 03:22:30;;;;;;;;;;;14.70;93.30;;;;;;5093500;28;19916;-62
2021/08/19 03:24:55;;;;;;;;;;;14.70;93.30;;;;;;5074861;28;19923;-63
2021/08/19 03:27:21;;;;;;;;;;;14.70;93.30;;;;;;5093127;28;19916;-63
2021/08/19 03:29:48;;;;;;;;;;;14.70;93.30;;;;;;5092810;28;19951;-63
2021/08/19 03:32:13;;;;;;;;;;;14.70;93.30;;;;;;5093059;28;20425;-62
2021/08/19 03:34:39;;;;;;;;;;;14.70;93.30;;;;;;5093119;28;19989;-63
2021/08/19 03:37:07;;;;;;;;;;;14.70;93.30;;;;;;5092588;28;20003;-62
2021/08/19 03:39:35;;;;;;;;;;;14.70;93.30;;;;;;5093029;28;19962;-62
2021/08/19 03:42:00;;;;;;;;;;;14.60;93.30;;;;;;5074304;28;19923;-63
2021/08/19 03:44:26;;;;;;;;;;;14.60;93.30;;;;;;5074841;28;20330;-63
2021/08/19 03:46:52;;;;;;;;;;;14.60;93.40;;;;;;5092781;28;19966;-62
2021/08/19 03:49:18;;;;;;;;;;;14.60;93.60;;;;;;5057589;28;19973;-62
2021/08/19 03:51:43;;;;;;;;;;;14.60;93.40;;;;;;5092741;28;19928;-62
2021/08/19 03:54:09;;;;;;;;;;;14.60;93.40;;;;;;5092942;28;19924;-62
2021/08/19 03:56:39;;;;;;;;;;;14.60;93.40;;;;;;5074189;28;19923;-63
2021/08/19 03:59:05;;;;;;;;;;;14.70;93.40;;;;;;5074520;28;19920;-62
2021/08/19 04:01:30;;;;;;;;;;;14.60;93.40;;;;;;5073936;28;20288;-62
2021/08/19 04:03:56;;;;;;;;;;;14.60;93.30;;;;;;5074494;28;19924;-63
2021/08/19 04:06:21;;;;;;;;;;;14.70;93.30;;;;;;5092681;28;20002;-63
2021/08/19 04:08:47;;;;;;;;;;;14.60;93.40;;;;;;5091688;28;19923;-62
2021/08/19 04:11:12;;;;;;;;;;;14.60;93.30;;;;;;5092322;28;19916;-63
2021/08/19 04:13:41;;;;;;;;;;;14.60;93.30;;;;;;5092417;28;19922;-61
2021/08/19 04:16:07;;;;;;;;;;;14.70;93.40;;;;;;5087511;28;20501;-62
2021/08/19 04:18:33;;;;;;;;;;;14.60;93.30;;;;;;5083760;28;19917;-62
2021/08/19 04:20:59;;;;;;;;;;;14.70;93.30;;;;;;5071075;28;19940;-62
2021/08/19 04:23:25;;;;;;;;;;;14.70;93.30;;;;;;5070622;28;19923;-62
2021/08/19 04:25:50;;;;;;;;;;;14.70;93.40;;;;;;5071795;28;19921;-62
2021/08/19 04:28:16;;;;;;;;;;;14.70;93.40;;;;;;5071150;28;20011;-63
2021/08/19 04:30:41;;;;;;;;;;;14.70;93.40;;;;;;5072052;28;20380;-63
2021/08/19 04:33:07;;;;;;;;;;;14.80;93.40;;;;;;5071323;28;20022;-62
2021/08/19 04:35:33;;;;;;;;;;;14.70;93.30;;;;;;5071839;28;19917;-63
2021/08/19 04:37:58;;;;;;;;;;;14.70;93.30;;;;;;5053616;28;19916;-63
2021/08/19 04:40:24;;;;;;;;;;;14.80;93.30;;;;;;5070104;28;19965;-63
2021/08/19 04:42:50;;;;;;;;;;;14.80;93.30;;;;;;5087425;28;19965;-63
2021/08/19 04:45:15;;;;;;;;;;;14.80;93.30;;;;;;5070196;28;20011;-62
2021/08/19 04:47:41;;;;;;;;;;;14.80;93.30;;;;;;5051153;28;19921;-62
2021/08/19 04:50:07;;;;;;;;;;;14.90;93.30;;;;;;5051767;28;19999;-62
2021/08/19 04:52:33;;;;;;;;;;;14.90;93.30;;;;;;5051555;28;19995;-62
2021/08/19 04:54:58;;;;;;;;;;;14.90;93.30;;;;;;5033197;28;19994;-63
2021/08/19 04:57:24;;;;;;;;;;;15.00;93.30;;;;;;5036273;28;19952;-63
2021/08/19 04:59:49;;;;;;;;;;;15.00;93.20;;;;;;5051519;28;19983;-63
2021/08/19 05:02:15;;;;;;;;;;;15.10;93.30;;;;;;5051219;28;19995;-63
2021/08/19 05:04:40;;;;;;;;;;;15.10;93.20;;;;;;5051547;28;20015;-63
2021/08/19 05:07:06;;;;;;;;;;;15.10;93.10;;;;;;5050715;28;19917;-63
2021/08/19 05:09:31;;;;;;;;;;;15.20;93.10;;;;;;5033609;28;19974;-63
2021/08/19 05:11:57;;;;;;;;;;;15.20;93.10;;;;;;5033628;28;19917;-63
2021/08/19 05:14:23;;;;;;;;;;;15.20;93.00;;;;;;5050991;28;19924;-63
2021/08/19 05:16:49;;;;;;;;;;;15.20;93.10;;;;;;5058972;28;19920;-63
2021/08/19 05:19:14;;;;;;;;;;;15.20;93.00;;;;;;5059802;28;19923;-62
2021/08/19 05:21:40;;;;;;;;;;;15.20;93.00;;;;;;5060930;28;19928;-63
2021/08/19 05:24:06;;;;;;;;;;;15.20;93.10;;;;;;5061183;28;20004;-62
2021/08/19 05:26:31;;;;;;;;;;;15.20;93.10;;;;;;5058703;28;19925;-63
2021/08/19 05:28:57;;;;;;;;;;;15.20;93.10;;;;;;5061011;28;19920;-61
2021/08/19 05:31:22;;;;;;;;;;;15.20;93.00;;;;;;5061587;28;19920;-63
2021/08/19 05:33:48;;;;;;;;;;;15.20;93.00;;;;;;5046865;28;20308;-62
2021/08/19 05:36:15;;;;;;;;;;;15.10;93.10;;;;;;5063720;28;19916;-62
2021/08/19 05:38:41;;;;;;;;;;;15.10;93.20;;;;;;5064897;28;19917;-64
2021/08/19 05:41:07;;;;;;;;;;;15.20;93.30;;;;;;5064474;28;20015;-63
2021/08/19 05:43:32;;;;;;;;;;;15.20;93.40;;;;;;5063543;28;20061;-62
2021/08/19 05:45:58;;;;;;;;;;;15.30;93.40;;;;;;5063723;28;19921;-62
2021/08/19 05:48:24;;;;;;;;;;;15.30;93.40;;;;;;5064192;28;19920;-62
2021/08/19 05:50:49;;;;;;;;;;;15.30;93.30;;;;;;5065258;28;20031;-62
2021/08/19 05:53:15;;;;;;;;;;;15.40;93.40;;;;;;5062820;28;19916;-61
2021/08/19 05:55:40;;;;;;;;;;;15.50;93.40;;;;;;5064919;28;19920;-62
2021/08/19 05:58:06;;;;;;;;;;;15.50;93.40;;;;;;5064659;28;19917;-62
2021/08/19 06:00:32;;;;;;;;;;;15.50;93.40;;;;;;5062025;28;19920;-62
2021/08/19 06:02:57;;;;;;;;;;;15.60;93.30;;;;;;5047220;28;19970;-62
2021/08/19 06:05:23;;;;;;;;;;;15.60;93.30;;;;;;5045654;28;20359;-63
2021/08/19 06:07:48;;;;;;;;;;;15.70;93.40;;;;;;5068092;28;19912;-62
2021/08/19 06:10:14;;;;;;;;;;;15.70;93.50;;;;;;5074554;28;20403;-62
2021/08/19 06:12:40;;;;;;;;;;;15.80;93.40;;;;;;5066320;28;20286;-63
2021/08/19 06:15:07;;;;;;;;;;;15.90;93.50;;;;;;5073292;28;19916;-63
2021/08/19 06:17:33;;;;;;;;;;;16.00;93.40;;;;;;5074266;28;19916;-62
2021/08/19 06:19:59;;;;;;;;;;;16.10;93.60;;;;;;5073673;28;19927;-63
2021/08/19 06:22:24;;;;;;;;;;;16.30;93.70;;;;;;5056276;28;19917;-63
2021/08/19 06:24:50;;;;;;;;;;;16.40;93.60;;;;;;5074350;28;19923;-62
2021/08/19 06:27:15;;;;;;;;;;;16.60;93.70;;;;;;5073611;28;20357;-63
2021/08/19 06:29:41;;;;;;;;;;;16.80;93.60;;;;;;5074097;28;19967;-62
2021/08/19 06:32:06;;;;;;;;;;;17.10;93.90;;;;;;5055560;28;20379;-64
2021/08/19 06:34:34;;;;;;;;;;;17.30;93.60;;;;;;5074137;28;20007;-63
2021/08/19 06:37:00;;;;;;;;;;;17.30;92.90;;;;;;5073731;28;19916;-62
2021/08/19 06:39:25;;;;;;;;;;;17.20;92.30;;;;;;5073546;28;19947;-63
2021/08/19 06:41:51;;;;;;;;;;;17.00;92.10;;;;;;5073874;28;19981;-62
2021/08/19 06:44:16;;;;;;;;;;;16.90;92.40;;;;;;5073647;28;20001;-62
2021/08/19 06:46:42;;;;;;;;;;;16.90;92.30;;;;;;5072100;28;19920;-63
2021/08/19 06:49:07;;;;;;;;;;;16.80;92.10;;;;;;5073996;28;19917;-63
2021/08/19 06:51:33;;;;;;;;;;;16.70;92.30;;;;;;5072670;28;19944;-65
2021/08/19 06:53:58;;;;;;;;;;;16.70;92.40;;;;;;5073363;28;19952;-63
2021/08/19 06:56:24;;;;;;;;;;;16.70;92.20;;;;;;5073675;28;19947;-62
2021/08/19 06:58:50;;;;;;;;;;;16.70;92.40;;;;;;5073122;28;19916;-65
2021/08/19 07:01:15;;;;;;;;;;;16.70;92.20;;;;;;5073413;28;20003;-63
2021/08/19 07:03:41;;;;;;;;;;;16.70;92.10;;;;;;5072106;28;19916;-62
2021/08/19 07:06:10;;;;;;;;;;;16.60;92.10;;;;;;5068834;28;20042;-63
2021/08/19 07:08:35;;;;;;;;;;;16.50;92.00;;;;;;5070891;28;19924;-63
2021/08/19 07:11:01;;;;;;;;;;;16.40;92.10;;;;;;5058525;28;19916;-62
2021/08/19 07:13:26;;;;;;;;;;;16.40;92.10;;;;;;5071985;28;19916;-63
2021/08/19 07:15:52;;;;;;;;;;;16.40;92.30;;;;;;5054852;28;19923;-63
2021/08/19 07:18:17;;;;;;;;;;;16.40;92.40;;;;;;5066902;28;19923;-63
2021/08/19 07:20:43;;;;;;;;;;;16.50;92.30;;;;;;5060789;28;19936;-64
2021/08/19 07:23:09;;;;;;;;;;;16.50;92.20;;;;;;5070846;28;19916;-62
2021/08/19 07:25:34;;;;;;;;;;;16.50;92.20;;;;;;5063250;28;20007;-62
2021/08/19 07:28:00;;;;;;;;;;;16.50;92.20;;;;;;5072033;28;19916;-63
2021/08/19 07:30:26;;;;;;;;;;;16.50;92.50;;;;;;5072341;28;19917;-62
2021/08/19 07:32:51;;;;;;;;;;;16.50;92.20;;;;;;5071897;28;19928;-64
2021/08/19 07:35:17;;;;;;;;;;;16.50;91.80;;;;;;5055049;28;19917;-63
2021/08/19 07:37:48;;;;;;;;;;;16.40;91.80;;;;;;5054207;28;20368;-62
2021/08/19 07:40:14;;;;;;;;;;;16.30;91.80;;;;;;5064972;28;19927;-63
2021/08/19 07:42:40;;;;;;;;;;;16.20;92.00;;;;;;5064257;28;20572;-63
2021/08/19 07:45:06;;;;;;;;;;;16.10;92.00;;;;;;5072611;28;19916;-63
2021/08/19 07:47:34;;;;;;;;;;;16.10;92.10;;;;;;5055934;28;19924;-62
2021/08/19 07:50:00;;;;;;;;;;;16.20;92.30;;;;;;5071919;28;19999;-63
2021/08/19 07:52:25;;;;;;;;;;;16.40;93.10;;;;;;5071840;28;19924;-62
2021/08/19 07:54:51;;;;;;;;;;;16.90;93.90;;;;;;5072242;28;19932;-63
2021/08/19 07:57:16;;;;;;;;;;;17.50;93.70;;;;;;5072340;28;19920;-64
2021/08/19 07:59:42;;;;;;;;;;;17.80;92.60;;;;;;5072575;28;19923;-65
2021/08/19 08:02:07;;;;;;;;;;;17.90;92.20;;;;;;5073046;28;19917;-65
2021/08/19 08:04:33;;;;;;;;;;;18.10;92.20;;;;;;5072245;28;20296;-65
2021/08/19 08:06:58;;;;;;;;;;;18.40;92.20;;;;;;5071766;28;19920;-64
2021/08/19 08:09:24;;;;;;;;;;;18.90;92.60;;;;;;5070901;28;19928;-64
2021/08/19 08:11:49;;;;;;;;;;;19.70;93.60;;;;;;5069702;28;19924;-64
2021/08/19 08:14:15;;;;;;;;;;;20.40;92.00;;;;;;5068888;28;19916;-64
2021/08/19 08:16:40;;;;;;;;;;;20.40;90.70;;;;;;5070204;28;19916;-64
2021/08/19 08:19:07;;;;;;;;;;;20.20;89.30;;;;;;5071217;28;19916;-64
2021/08/19 08:21:32;;;;;;;;;;;20.00;88.10;;;;;;5070977;28;20187;-64
2021/08/19 08:24:00;;;;;;;;;;;19.70;87.30;;;;;;5071037;28;19916;-64
2021/08/19 08:26:25;;;;;;;;;;;19.30;86.70;;;;;;5071818;28;20373;-64
2021/08/19 08:28:51;;;;;;;;;;;19.20;88.10;;;;;;5053790;28;19927;-65
2021/08/19 08:31:17;;;;;;;;;;;19.30;89.40;;;;;;5070937;28;19962;-64
2021/08/19 08:33:42;;;;;;;;;;;19.70;90.20;;;;;;5071730;28;19928;-64
2021/08/19 08:36:08;;;;;;;;;;;20.20;89.90;;;;;;5071324;28;19917;-64
2021/08/19 08:38:33;;;;;;;;;;;20.70;88.90;;;;;;5071326;28;20288;-64
2021/08/19 08:40:59;;;;;;;;;;;21.40;89.60;;;;;;5071576;28;19973;-63
2021/08/19 08:43:25;;;;;;;;;;;21.70;85.70;;;;;;5071141;28;19917;-64
2021/08/19 08:45:52;;;;;;;;;;;21.70;84.20;;;;;;5071477;28;19928;-63
2021/08/19 08:48:19;;;;;;;;;;;21.50;82.30;;;;;;5053328;28;19922;-63
2021/08/19 08:50:46;;;;;;;;;;;21.30;81.60;;;;;;5071021;28;19921;-64
2021/08/19 08:53:12;;;;;;;;;;;21.20;81.70;;;;;;5071372;28;19971;-65
2021/08/19 08:55:38;;;;;;;;;;;21.20;82.30;;;;;;5071075;28;19917;-64
2021/08/19 08:58:04;;;;;;;;;;;21.40;82.80;;;;;;5071094;28;20368;-63
2021/08/19 09:00:30;;;;;;;;;;;22.90;88.80;;;;;;5071419;28;20383;-64
2021/08/19 09:02:55;;;;;;;;;;;24.70;86.30;;;;;;5071134;28;19944;-63
2021/08/19 09:05:24;;;;;;;;;;;25.40;80.40;;;;;;5071482;28;19952;-64
2021/08/19 09:07:54;;;;;;;;;;;25.30;76.10;;;;;;5070965;28;19916;-64
2021/08/19 09:10:20;;;;;;;;;;;24.90;73.10;;;;;;5071167;28;19923;-64
2021/08/19 09:12:46;;;;;;;;;;;24.50;73.30;;;;;;5053419;28;20387;-63
2021/08/19 09:15:12;;;;;;;;;;;24.60;73.70;;;;;;5071263;28;19916;-64
2021/08/19 09:17:39;;;;;;;;;;;24.70;73.80;;;;;;5072533;28;19916;-63
2021/08/19 09:20:05;;;;;;;;;;;24.50;70.60;;;;;;5071548;28;19924;-63
2021/08/19 09:22:48;;;;;;;;;;;23.90;69.00;;;;;;5070529;28;19995;-64
2021/08/19 09:25:27;;;;;;;;;;;23.10;69.00;;;;;;5071323;28;19924;-64
2021/08/19 09:28:12;;;;;;;;;;;22.60;69.80;;;;;;5070601;28;19940;-63
2021/08/19 09:30:38;;;;;;;;;;;22.30;71.30;;;;;;5070729;28;19999;-65
2021/08/19 09:33:07;;;;;;;;;;;22.20;70.90;;;;;;5070894;28;19927;-64
2021/08/19 09:35:33;;;;;;;;;;;22.10;71.60;;;;;;5053143;28;20334;-63
2021/08/19 09:38:06;;;;;;;;;;;22.10;70.80;;;;;;5070496;28;20031;-64
2021/08/19 09:40:32;;;;;;;;;;;21.90;70.10;;;;;;5071039;28;19920;-62
2021/08/19 09:42:57;;;;;;;;;;;21.50;70.40;;;;;;5071024;28;19916;-64
2021/08/19 09:45:24;;;;;;;;;;;21.30;71.30;;;;;;5070579;28;19913;-63
2021/08/19 09:47:50;;;;;;;;;;;21.30;72.10;;;;;;5070532;28;19923;-64
2021/08/19 09:50:19;;;;;;;;;;;21.40;72.40;;;;;;5070592;28;19917;-64
2021/08/19 09:52:54;;;;;;;;;;;21.40;72.60;;;;;;5070867;28;19923;-64
2021/08/19 09:55:20;;;;;;;;;;;21.40;72.50;;;;;;5070485;28;19924;-64
2021/08/19 09:57:46;;;;;;;;;;;21.50;72.50;;;;;;5070578;28;19916;-64
2021/08/19 10:00:22;;;;;;;;;;;21.50;72.40;;;;;;5053028;28;19927;-64
2021/08/19 10:02:47;;;;;;;;;;;21.50;71.90;;;;;;5070635;28;19940;-65
2021/08/19 10:05:14;;;;;;;;;;;21.20;71.50;;;;;;5071019;28;20341;-63
2021/08/19 10:07:39;;;;;;;;;;;21.20;71.90;;;;;;5070222;28;19924;-64
2021/08/19 10:10:05;;;;;;;;;;;21.00;71.80;;;;;;5070879;28;19916;-64
2021/08/19 10:12:30;;;;;;;;;;;20.80;71.90;;;;;;5070763;28;19955;-63
2021/08/19 10:14:57;;;;;;;;;;;20.60;71.90;;;;;;5070233;28;19917;-63
2021/08/19 10:17:22;;;;;;;;;;;20.40;71.80;;;;;;5070424;28;20395;-63
2021/08/19 10:19:48;;;;;;;;;;;20.30;72.60;;;;;;5074317;28;19917;-64
2021/08/19 10:22:16;;;;;;;;;;;20.20;73.30;;;;;;5073894;28;20339;-64
2021/08/19 10:24:43;;;;;;;;;;;20.30;73.90;;;;;;5056220;28;19921;-63
2021/08/19 10:27:19;;;;;;;;;;;20.30;73.30;;;;;;5073845;28;20288;-63
2021/08/19 10:29:47;;;;;;;;;;;20.20;72.90;;;;;;5073839;28;19920;-64
2021/08/19 10:32:25;;;;;;;;;;;20.10;73.40;;;;;;5073872;28;19946;-64
2021/08/19 10:34:59;;;;;;;;;;;20.10;73.90;;;;;;5074031;28;20289;-64
2021/08/19 10:37:44;;;;;;;;;;;20.20;74.10;;;;;;5073672;28;19920;-64
2021/08/19 10:40:22;;;;;;;;;;;20.40;74.50;;;;;;5073780;28;19927;-64
2021/08/19 10:42:54;;;;;;;;;;;20.60;74.10;;;;;;5055404;28;20343;-64
2021/08/19 10:45:26;;;;;;;;;;;20.70;73.60;;;;;;5073851;28;19924;-64
2021/08/19 10:47:52;;;;;;;;;;;21.00;73.90;;;;;;5073504;28;19948;-64
2021/08/19 10:50:36;;;;;;;;;;;21.30;74.20;;;;;;5073389;28;19944;-64
2021/08/19 10:53:10;;;;;;;;;;;21.60;73.80;;;;;;5073552;28;20376;-64
2021/08/19 10:55:46;;;;;;;;;;;21.70;72.30;;;;;;5073548;28;19917;-64
2021/08/19 10:58:21;;;;;;;;;;;21.70;71.90;;;;;;5073292;28;20026;-63
2021/08/19 11:00:46;;;;;;;;;;;21.80;72.60;;;;;;5072643;28;19950;-64
2021/08/19 11:03:30;;;;;;;;;;;21.90;72.10;;;;;;5073239;28;20003;-64
2021/08/19 11:05:56;;;;;;;;;;;21.90;70.60;;;;;;5072913;28;19917;-64
2021/08/19 11:08:35;;;;;;;;;;;21.80;70.90;;;;;;5073112;28;19923;-64
2021/08/19 11:11:01;;;;;;;;;;;22.10;73.30;;;;;;5054971;28;19920;-64
2021/08/19 11:13:27;;;;;;;;;;;22.80;72.70;;;;;;5073285;28;20293;-63
2021/08/19 11:15:53;;;;;;;;;;;23.10;70.80;;;;;;5073237;28;19916;-64
2021/08/19 11:18:25;;;;;;;;;;;23.30;69.60;;;;;;5072248;28;19917;-63
2021/08/19 11:20:51;;;;;;;;;;;24.10;70.50;;;;;;5073222;28;19925;-63
2021/08/19 11:23:17;;;;;;;;;;;25.30;70.60;;;;;;5072650;28;19917;-64
2021/08/19 11:25:43;;;;;;;;;;;26.00;67.50;;;;;;5073303;28;19916;-64
2021/08/19 11:28:16;;;;;;;;;;;26.00;63.90;;;;;;5072900;28;20384;-64
2021/08/19 11:30:45;;;;;;;;;;;25.80;64.00;;;;;;5071861;28;19974;-64
2021/08/19 11:33:21;;;;;;;;;;;26.00;63.70;;;;;;5072877;28;19927;-64
2021/08/19 11:35:48;;;;;;;;;;;27.60;66.20;;;;;;5072618;28;20429;-63
2021/08/19 11:38:14;;;;;;;;;;;28.70;63.20;;;;;;5054626;28;19916;-63
2021/08/19 11:40:41;;;;;;;;;;;28.60;59.00;;;;;;5072294;28;19921;-63
2021/08/19 11:43:25;;;;;;;;;;;27.50;55.20;;;;;;5072892;28;19916;-64
2021/08/19 11:45:52;;;;;;;;;;;26.20;55.70;;;;;;5071761;28;19916;-63
2021/08/19 11:48:19;;;;;;;;;;;25.20;56.70;;;;;;5071927;28;19977;-64
2021/08/19 11:50:44;;;;;;;;;;;24.50;57.40;;;;;;5072677;28;19917;-64
2021/08/19 11:53:13;;;;;;;;;;;24.00;58.20;;;;;;5071927;28;19919;-63
2021/08/19 11:55:39;;;;;;;;;;;23.70;59.20;;;;;;5072352;28;19917;-63
2021/08/19 11:58:14;;;;;;;;;;;23.40;59.20;;;;;;5072198;28;19927;-64
2021/08/19 12:00:56;;;;;;;;;;;23.10;59.80;;;;;;5072044;28;19920;-64
2021/08/19 12:03:21;;;;;;;;;;;22.90;60.60;;;;;;5071870;28;20294;-63
2021/08/19 12:05:57;;;;;;;;;;;22.60;60.60;;;;;;5072433;28;19916;-64
2021/08/19 12:08:24;;;;;;;;;;;22.40;61.10;;;;;;5072200;28;19916;-63
2021/08/19 12:10:49;;;;;;;;;;;22.10;61.20;;;;;;5071679;28;20368;-63
2021/08/19 12:13:15;;;;;;;;;;;21.80;62.30;;;;;;5071668;28;19966;-64
2021/08/19 12:15:40;;;;;;;;;;;21.80;62.90;;;;;;5071022;28;19916;-64
2021/08/19 12:18:06;;;;;;;;;;;21.80;63.60;;;;;;5071591;28;19962;-62
2021/08/19 12:20:32;;;;;;;;;;;21.90;63.30;;;;;;5071759;28;19920;-62
2021/08/19 12:23:23;;;;;;;;;;;21.90;63.60;;;;;;5071238;28;19923;-63
2021/08/19 12:25:49;;;;;;;;;;;22.20;64.10;;;;;;5050215;28;20323;-64
2021/08/19 12:28:17;;;;;;;;;;;22.40;63.80;;;;;;5071504;28;19970;-64
2021/08/19 12:31:03;;;;;;;;;;;22.50;63.40;;;;;;5071725;28;20430;-63
2021/08/19 12:33:32;;;;;;;;;;;22.50;63.00;;;;;;5071298;28;19924;-62
2021/08/19 12:36:17;;;;;;;;;;;22.40;62.70;;;;;;5071508;28;19917;-64
2021/08/19 12:38:44;;;;;;;;;;;22.50;63.30;;;;;;5071076;28;19916;-65
2021/08/19 12:41:13;;;;;;;;;;;22.50;63.60;;;;;;5072439;28;19920;-63
2021/08/19 12:43:39;;;;;;;;;;;22.60;63.60;;;;;;5071437;28;19923;-64
2021/08/19 12:46:06;;;;;;;;;;;22.80;64.00;;;;;;5072126;28;20329;-65
2021/08/19 12:48:32;;;;;;;;;;;22.90;63.40;;;;;;5071775;28;20407;-63
2021/08/19 12:51:15;;;;;;;;;;;23.10;63.30;;;;;;5070883;28;20376;-64
2021/08/19 12:53:59;;;;;;;;;;;23.50;64.30;;;;;;5071680;28;19916;-63
2021/08/19 12:56:25;;;;;;;;;;;23.90;62.70;;;;;;5071371;28;19920;-63
2021/08/19 12:58:50;;;;;;;;;;;23.70;62.10;;;;;;5071073;28;19916;-63
2021/08/19 13:01:17;;;;;;;;;;;23.50;61.60;;;;;;5070870;28;20115;-64
2021/08/19 13:03:42;;;;;;;;;;;23.40;62.40;;;;;;5071266;28;19974;-63
2021/08/19 13:06:08;;;;;;;;;;;23.50;62.80;;;;;;5070712;28;20321;-64
2021/08/19 13:08:33;;;;;;;;;;;23.90;63.20;;;;;;5052794;28;20481;-66
2021/08/19 13:10:59;;;;;;;;;;;24.20;62.90;;;;;;5071593;28;19916;-65
2021/08/19 13:13:24;;;;;;;;;;;24.20;62.10;;;;;;5070963;28;20300;-65
2021/08/19 13:15:50;;;;;;;;;;;24.20;61.30;;;;;;5070710;28;19931;-66
2021/08/19 13:18:16;;;;;;;;;;;24.10;61.50;;;;;;5070780;28;19916;-67
2021/08/19 13:20:42;;;;;;;;;;;24.10;61.40;;;;;;5050207;28;19921;-64
2021/08/19 13:23:07;;;;;;;;;;;24.00;61.20;;;;;;5069945;28;19924;-64
2021/08/19 13:25:33;;;;;;;;;;;23.90;61.00;;;;;;5071111;28;19936;-63
2021/08/19 13:27:59;;;;;;;;;;;23.80;61.20;;;;;;5070284;28;19916;-63
2021/08/19 13:30:24;;;;;;;;;;;23.60;61.30;;;;;;5070678;28;20360;-63
2021/08/19 13:32:50;;;;;;;;;;;23.30;61.00;;;;;;5070751;28;19978;-62
2021/08/19 13:35:15;;;;;;;;;;;22.90;61.30;;;;;;5058310;28;19999;-64
2021/08/19 13:37:43;;;;;;;;;;;22.70;62.00;;;;;;5068305;28;19923;-62
2021/08/19 13:40:08;;;;;;;;;;;22.40;62.40;;;;;;5070949;28;19966;-64
2021/08/19 13:42:34;;;;;;;;;;;22.10;62.70;;;;;;5070634;28;19921;-62
2021/08/19 13:45:00;;;;;;;;;;;21.80;63.30;;;;;;5070947;28;19940;-64
2021/08/19 13:47:25;;;;;;;;;;;21.60;64.30;;;;;;5063130;28;20358;-64
2021/08/19 13:49:51;;;;;;;;;;;21.40;65.00;;;;;;5069973;28;20269;-63
2021/08/19 13:52:16;;;;;;;;;;;21.40;65.60;;;;;;5050758;28;19917;-63
2021/08/19 13:54:42;;;;;;;;;;;21.40;65.90;;;;;;5053843;28;19917;-63
2021/08/19 13:57:07;;;;;;;;;;;21.30;65.90;;;;;;5054306;28;19946;-64
2021/08/19 13:59:35;;;;;;;;;;;21.20;66.40;;;;;;5054712;28;20369;-64
2021/08/19 14:02:02;;;;;;;;;;;21.10;66.60;;;;;;5060559;28;20011;-64
2021/08/19 14:04:27;;;;;;;;;;;21.00;67.10;;;;;;5075015;28;19956;-68
2021/08/19 14:06:53;;;;;;;;;;;21.00;67.30;;;;;;5056187;28;20001;-69
2021/08/19 14:09:18;;;;;;;;;;;21.00;67.90;;;;;;5074277;28;19917;-67
2021/08/19 14:11:44;;;;;;;;;;;21.10;68.10;;;;;;5074218;28;19924;-66
2021/08/19 14:14:10;;;;;;;;;;;21.20;68.60;;;;;;5073898;28;20011;-67